AirNav   Air Wisconsin Airman Trainee
 
 595 users online  

1AL4 Elsanor Airport
Robertsdale, Alabama, USA

GOING TO ROBERTSDALE?


FAA INFORMATION EFFECTIVE 31 JANUARY 2019

Location

FAA Identifier: 1AL4
Lat/Long: 30-32-41.0000N / 087-33-34.0000W
30-32.683333N / 087-33.566667W
30.5447222 / -87.5594444
(estimated)
Elevation: 180 ft. / 55 m (estimated)
Variation: 01E (1990)
From city: 11 miles E of ROBERTSDALE, AL
Time zone: UTC -6 (UTC -5 during Daylight Saving Time)
Zip code: 36567

Airport Operations

Airport use: Private use. Permission required prior to landing
Activation date: 03/1993
Control tower: no
ARTCC: JACKSONVILLE CENTER
FSS: ANNISTON FLIGHT SERVICE STATION
Attendance: UNATNDD
Segmented circle: no

Airport Communications

WX AWOS-3PT at JKA (16 nm S): 134.525 (251-968-7581)
WX AWOS-3PT at CQF (17 nm W): 118.425 (251-928-3242)
WX ASOS at PNS (20 nm E): PHONE 850-436-4799

Nearby radio navigation aids

VOR radial/distance  VOR name  Freq  Var
NUNr290/(12.3)SAUFLEY VOR108.8001E
BFMr095/25.9BROOKLEY VORTAC112.8004E

 
NDB name  Hdg/Dist  Freq  Var  ID
PICKENS290/20.732602WPKZ .--. -.- --..

Airport Services

Runway Information

Runway 9/27

Dimensions: 2400 x 100 ft. / 732 x 30 m
Surface: turf
RUNWAY 9  RUNWAY 27
Traffic pattern: leftleft

Airport Ownership and Management from official FAA records

Ownership: Privately-owned
Owner: RICHARD E. GORDON JR
21810 KOLER ROAD
ROBERTSDALE, AL 21756
Phone (805) 572-7510
Manager: RICHARD E. GORDON JR.
21810 KOLER ROAD
ROBERTSDALE, AL 21756
Phone (805) 572-7510

Airport Operational Statistics

Aircraft based on the field: 1
Single engine airplanes: 1
    

Additional Remarks

GLIDER ACTIVITY ON AND INVOF ARPT.

Instrument Procedures

There are no published instrument procedures at 1AL4.

Some nearby airports with instrument procedures:

5R4 - Foley Municipal Airport (10 nm SW)
KJKA - Jack Edwards National Airport (16 nm S)
KNPA - Pensacola Naval Air Station/Forrest Sherman Field (17 nm SE)
KCQF - H L Sonny Callahan Airport (17 nm W)
KPNS - Pensacola International Airport (20 nm E)
 
Loc | Ops | Rwys | IFR | FBO | Links
Com | Nav | Svcs | Stats | Notes

Continental Motors
AirBoss

 
Area around 1AL4 (Elsanor Airport)
 
Road maps at: MapQuest Bing Google
 
Aerial photo
No photo
 
Sectional chart

 
Airport distance calculator
Flying to Elsanor Airport? Find the distance to fly.

From to 1AL4

Sunrise and sunset
Times for 22-Feb-2019
 Local
(UTC-6)
 Zulu
(UTC)
Morning civil twilight06:0112:01
Sunrise06:2512:25
Sunset17:4323:43
Evening civil twilight18:0700:07

Current date and time
Zulu (UTC)  23-Feb-2019 04:54:24
Local (UTC-6)  22-Feb-2019 22:54:24
 
METAR
KJKA 
16nm S 
230435Z 12009G15KT 3/4SM BR OVC002 A3009 RMK AO2
KNPA 
17nm SE 
230356Z AUTO 12008KT 1/2SM FG VV002 20/20 A3010 RMK AO2 SLP193 T02000200
KCQF 
17nm W 
230435Z AUTO 13007KT 1 3/4SM BR OVC003 21/21 A3009 RMK AO2
KPNS 
20nm E 
230415Z 12009KT 1/2SM R17/2000V2400FT FG VV002 20/19 A3010 RMK AO2 T02000189
KBFM 
27nm W 
230353Z AUTO 14005KT 3/4SM BR VV002 21/21 A3009 RMK AO2 SLP189 T02060206
KNDZ 
29nm E 
230356Z 15007KT 1/2SM FG VV002 20/20 A3012 RMK AO2 SLP184 T02000200 $
2R4 
30nm E 
SuperAWOS
230415Z AUTO 15004KT 20/20 A3009
KNSE 
30nm E 
230356Z 14008KT 1/2SM FG VV002 19/19 A3011 RMK AO2 SLP183 T01940194 $
TAF
KNPA 
17nm SE 
2223/2323 11009KT 0400 FG VV002 QNH3006INS TEMPO 2223/2305 1200 BR OVC003 FM231600 14008KT 4800 BR BKN004 OVC015 QNH3009INS FM231800 16010G16KT 8000 BR BKN007 OVC020 QNH3004INS FM232030 17011G16KT 1600 BR OVC003 QNH3000INS AUTOMATED SENSOR METWATCH 2303 TIL 2315 T19/2310Z T24/2320Z FN20034
KPNS 
20nm E 
222135Z 2222/2318 11010KT 1/2SM FG OVC002 FM231700 17012G20KT 5SM BR OVC003
NOTAMs
Click for the latest NOTAMs
NOTAMs are issued by the DoD/FAA and will open in a separate window not controlled by AirNav.

 

 
 

Would you like to see your business listed on this page?

 If your business provides an interesting product or service to pilots, flight crews, aircraft, or users of the Elsanor Airport, you should consider listing it here.  To start the listing process, click on the button below
 
Add a business
 

Other Pages about Elsanor Airport

Update a link
 
Copyright © AirNav, LLC. All rights reserved. Privacy Policy  Contact